Wildwood, NJ

1:11 PM EDT on September 21, 2014 (GMT -0400)
Millville Municipal | Change Station
CLOSE
Current Station
Airport
Location: Millville,
Elevation: 82 ft
Nearby Weather Stations

Elev 82 ft 39.37 °N, 75.08 °W | Updated 17 minutes ago

Mostly Cloudy
Mostly Cloudy
72 °F
Feels Like 72 °F
N
8
Wind Variable Wind from NNW

Today
High -- | Low -- °F
--% Chance of Precip.
Yesterday
High -- | Low -- °F
Precip. -- in
6:46 AM 6:57 PM
Waning Crescent, 6% visible
Pressure 29.78 in
Visibility 10.0 miles
Clouds Overcast 900 ft
Dew Point 67 °F
Humidity 84%
Rainfall 0.00 in
Snow Depth Not available.
UV 2 out of 12
Pollen 3.80 out of 12
Air Quality Not available.
Flu Activity Not available.
METAR KMIV 211654Z AUTO 34007KT 10SM OVC009 22/19 A2978 RMK AO2 CIG 007V012 SLP083 T02220194

More Conditions Fewer Conditions

Pressure 29.78 in
Visibility 10.0 miles
Clouds Overcast 900 ft
Dew Point 67 °F
Humidity 84%
Rainfall 0.00 in
Snow Depth Not available.
UV 2 out of 12
Pollen 3.80 out of 12
Air Quality Not available.
Flu Activity Not available.
METAR KMIV 211654Z AUTO 34007KT 10SM OVC009 22/19 A2978 RMK AO2 CIG 007V012 SLP083 T02220194

More Conditions Fewer Conditions

10-Day Weather Forecast

Almanac

Astronomy

Sep. 21, 2014 Rise Set
Actual Time 6:46 AM EDT 6:57 PM EDT
Civil Twilight 6:19 AM EDT 7:24 PM EDT
Nautical Twilight 5:48 AM EDT 7:55 PM EDT
Astronomical Twilight 5:16 AM EDT 8:27 PM EDT
Moon 4:18 AM EDT 5:32 PM EDT
Length of Visible Light 13h 05m
Length of Day
12h 11m
Tomorrow will be 2m 32s shorter.
Waning Crescent, 6% of the Moon is Illuminated
Today
Waning Crescent
Sep 24
New
Oct 1
First Quarter
Oct 8
Full
Oct 15
Last Quarter

Today's Extremes

State Highs State Lows

Community

WunderPhotos

Upload Photos

1,755,197 photos uploaded!

WunderBlogs® & News

Nearby

Snow Depth

Station Depth Elevation
No new snow has been reported.

Earthquake Activity

City Distance Mag. Time & Date
No recent earthquake activity has been reported nearby.
Minimum magnitude displayed is 2.5.

Coastal Water Temperatures

Place Temperature
Cape May, NJ 75.0 °F
Atlantic City, NJ 72.0 °F
Lewes, DE 72.0 °F

Nearby Weather Stations